Time;durP1;ratioP1;P1;durP2;ratioP2;P2;SDS_P1;SDS_P2;PMS_P1;PMS_P2;Temp;Humidity;BMP_temperature;BMP_pressure;BME280_temperature;BME280_humidity;BME280_pressure;Samples;Min_cycle;Max_cycle;Signal;HPM_P1;HPM_P2
2023/04/30 00:01:08;;;;;;;21.95;4.78;;;;;;;;;;6267639;22;19999;-94
2023/04/30 00:03:35;;;;;;;20.83;8.23;;;;;;;;;;6294379;22;19995;-94
2023/04/30 00:06:01;;;;;;;26.92;10.27;;;;;;;;;;6292154;22;19999;-95
2023/04/30 00:08:30;;;;;;;10.30;5.25;;;;;;;;;;6292788;22;20015;-94
2023/04/30 00:10:56;;;;;;;19.60;5.15;;;;;;;;;;6292350;22;20353;-95
2023/04/30 00:13:30;;;;;;;18.40;4.95;;;;;;;;;;6292111;22;20014;-94
2023/04/30 00:15:57;;;;;;;17.80;5.28;;;;;;;;;;6291022;22;20008;-94
2023/04/30 00:18:29;;;;;;;14.18;4.50;;;;;;;;;;6292312;22;20095;-95
2023/04/30 00:21:00;;;;;;;10.15;4.22;;;;;;;;;;6292739;22;20011;-94
2023/04/30 00:23:29;;;;;;;13.65;4.78;;;;;;;;;;6266975;22;20008;-94
2023/04/30 00:25:56;;;;;;;10.07;4.50;;;;;;;;;;6267941;22;19992;-94
2023/04/30 00:28:23;;;;;;;11.50;5.15;;;;;;;;;;6290255;22;19999;-94
2023/04/30 00:30:50;;;;;;;11.32;4.70;;;;;;;;;;6292334;22;20003;-93
2023/04/30 00:33:18;;;;;;;10.38;4.50;;;;;;;;;;6292862;22;20007;-93
2023/04/30 00:35:45;;;;;;;13.50;4.97;;;;;;;;;;6266101;22;20091;-94
2023/04/30 00:38:29;;;;;;;9.48;4.70;;;;;;;;;;6291992;22;20039;-95
2023/04/30 00:40:56;;;;;;;11.95;4.70;;;;;;;;;;6292069;22;19987;-95
2023/04/30 00:43:36;;;;;;;12.02;4.28;;;;;;;;;;6264780;22;20008;-94
2023/04/30 00:46:05;;;;;;;12.80;4.70;;;;;;;;;;6291169;22;20059;-94
2023/04/30 00:48:40;;;;;;;11.20;4.70;;;;;;;;;;6291329;22;20067;-95
2023/04/30 00:54:02;;;;;;;12.80;4.40;;;;;;;;;;6293105;22;20053;-94
2023/04/30 00:56:35;;;;;;;11.40;4.68;;;;;;;;;;6291546;22;20011;-95
2023/04/30 00:59:08;;;;;;;11.43;4.53;;;;;;;;;;6292394;22;20011;-94
2023/04/30 01:01:38;;;;;;;15.07;4.68;;;;;;;;;;6291153;22;20442;-95
2023/04/30 01:06:57;;;;;;;13.40;4.90;;;;;;;;;;6292992;22;20030;-96
2023/04/30 01:09:42;;;;;;;13.02;4.18;;;;;;;;;;6266302;22;20529;-95
2023/04/30 01:12:27;;;;;;;12.60;4.43;;;;;;;;;;6289631;22;20051;-96
2023/04/30 01:15:14;;;;;;;10.88;4.25;;;;;;;;;;6290392;22;20452;-96
2023/04/30 01:17:58;;;;;;;12.90;4.30;;;;;;;;;;6289961;22;20000;-96
2023/04/30 01:20:29;;;;;;;16.60;4.28;;;;;;;;;;6291318;22;20050;-95
2023/04/30 01:23:19;;;;;;;13.13;4.57;;;;;;;;;;6290474;22;20003;-95
2023/04/30 01:26:08;;;;;;;18.30;5.68;;;;;;;;;;6291645;22;19992;-94
2023/04/30 01:28:38;;;;;;;14.13;5.22;;;;;;;;;;6291356;22;20053;-94
2023/04/30 01:31:24;;;;;;;13.82;4.50;;;;;;;;;;6290397;22;20020;-95
2023/04/30 01:34:17;;;;;;;17.45;4.80;;;;;;;;;;6290560;22;20019;-94
2023/04/30 01:36:55;;;;;;;6.85;4.15;;;;;;;;;;6269603;22;20020;-95
2023/04/30 01:39:42;;;;;;;20.27;4.35;;;;;;;;;;6291235;22;20023;-93
2023/04/30 01:42:36;;;;;;;8.43;4.82;;;;;;;;;;6289389;22;20015;-94
2023/04/30 01:45:15;;;;;;;8.68;4.10;;;;;;;;;;6289993;22;20060;-95
2023/04/30 01:48:02;;;;;;;19.08;3.83;;;;;;;;;;6288491;22;20000;-94
2023/04/30 01:50:48;;;;;;;9.20;4.55;;;;;;;;;;6290465;22;20004;-95
2023/04/30 01:53:20;;;;;;;15.50;5.47;;;;;;;;;;6290577;22;20031;-95
2023/04/30 01:56:06;;;;;;;17.33;6.70;;;;;;;;;;6289825;22;20034;-96
2023/04/30 01:58:35;;;;;;;24.15;7.15;;;;;;;;;;6286697;22;20360;-94
2023/04/30 02:01:01;;;;;;;14.65;6.03;;;;;;;;;;6261688;22;20012;-94
2023/04/30 02:06:26;;;;;;;;;;;;;;;;;;;;;
2023/04/30 02:09:04;;;;;;;11.63;4.32;;;;;;;;;;6290055;22;20008;-94
2023/04/30 02:11:33;;;;;;;11.90;4.10;;;;;;;;;;6264961;22;20011;-95
2023/04/30 02:14:00;;;;;;;13.85;4.80;;;;;;;;;;6268254;22;20023;-94
2023/04/30 02:16:35;;;;;;;11.85;3.83;;;;;;;;;;6290510;22;19988;-94
2023/04/30 02:19:18;;;;;;;12.90;4.65;;;;;;;;;;6293976;22;20020;-95
2023/04/30 02:21:46;;;;;;;10.70;4.07;;;;;;;;;;6293002;22;19995;-95
2023/04/30 02:24:16;;;;;;;13.23;4.65;;;;;;;;;;6267780;22;20003;-95
2023/04/30 02:26:46;;;;;;;13.20;4.38;;;;;;;;;;6290778;22;20004;-95
2023/04/30 02:29:42;;;;;;;11.35;4.82;;;;;;;;;;6292756;22;20008;-94
2023/04/30 02:32:16;;;;;;;12.93;4.15;;;;;;;;;;6286426;22;20007;-95
2023/04/30 02:34:49;;;;;;;9.95;4.13;;;;;;;;;;6291263;22;20035;-95
2023/04/30 02:37:19;;;;;;;9.60;4.28;;;;;;;;;;6291496;22;20019;-95
2023/04/30 02:39:54;;;;;;;10.80;4.00;;;;;;;;;;6293667;22;20009;-95
2023/04/30 02:42:33;;;;;;;11.57;4.20;;;;;;;;;;6293193;22;20023;-96
2023/04/30 02:45:00;;;;;;;12.85;5.05;;;;;;;;;;6292469;22;20240;-96
2023/04/30 02:47:26;;;;;;;12.77;4.25;;;;;;;;;;6293372;22;20055;-96
2023/04/30 02:49:59;;;;;;;10.10;3.78;;;;;;;;;;6266613;22;20406;-96
2023/04/30 02:52:42;;;;;;;14.82;4.20;;;;;;;;;;6296382;22;20438;-96
2023/04/30 02:58:03;;;;;;;13.75;4.75;;;;;;;;;;6234222;22;20022;-95
2023/04/30 03:00:30;;;;;;;12.07;3.38;;;;;;;;;;6267453;22;20012;-95
2023/04/30 03:02:56;;;;;;;9.88;3.90;;;;;;;;;;6291482;22;20426;-96
2023/04/30 03:05:22;;;;;;;10.70;4.72;;;;;;;;;;6264819;22;20012;-95
2023/04/30 03:07:49;;;;;;;9.27;3.70;;;;;;;;;;6291364;22;20015;-95
2023/04/30 03:10:21;;;;;;;12.63;3.40;;;;;;;;;;6265279;22;20000;-96
2023/04/30 03:12:47;;;;;;;10.57;3.95;;;;;;;;;;6280836;22;20010;-95
2023/04/30 03:15:13;;;;;;;14.63;4.20;;;;;;;;;;6289454;22;20014;-96
2023/04/30 03:18:14;;;;;;;12.85;3.88;;;;;;;;;;6289888;22;20015;-96
2023/04/30 03:20:43;;;;;;;12.05;3.67;;;;;;;;;;6290403;22;20420;-96
2023/04/30 03:23:19;;;;;;;19.95;4.68;;;;;;;;;;6289249;22;20006;-95
2023/04/30 03:26:17;;;;;;;13.00;4.70;;;;;;;;;;6263985;22;20004;-95
2023/04/30 03:28:46;;;;;;;10.25;3.95;;;;;;;;;;6250056;22;20015;-95
2023/04/30 03:31:45;;;;;;;13.30;4.40;;;;;;;;;;6262576;22;20378;-95
2023/04/30 03:34:15;;;;;;;11.65;3.90;;;;;;;;;;6289498;22;20059;-96
2023/04/30 03:36:51;;;;;;;13.13;4.60;;;;;;;;;;6288122;22;20004;-96
2023/04/30 03:42:16;;;;;;;10.07;4.07;;;;;;;;;;6289282;22;20011;-96
2023/04/30 03:44:52;;;;;;;14.27;3.90;;;;;;;;;;6287360;22;19987;-95
2023/04/30 03:47:18;;;;;;;;;;;;;;;;;;6262232;22;20034;-95
2023/04/30 03:52:32;;;;;;;12.90;4.28;;;;;;;;;;6289732;22;20043;-95
2023/04/30 03:55:09;;;;;;;9.07;3.92;;;;;;;;;;6288538;22;20023;-95
2023/04/30 03:57:45;;;;;;;22.88;4.40;;;;;;;;;;6288878;22;20011;-96
2023/04/30 04:00:17;;;;;;;16.58;4.78;;;;;;;;;;6287695;22;20122;-95
2023/04/30 04:03:05;;;;;;;10.35;3.42;;;;;;;;;;6263623;22;20003;-95
2023/04/30 04:05:42;;;;;;;;;;;;;;;;;;;;;
2023/04/30 04:08:23;;;;;;;15.20;4.47;;;;;;;;;;6289053;22;20007;-96
2023/04/30 04:10:50;;;;;;;11.57;4.35;;;;;;;;;;6287518;22;20003;-95
2023/04/30 04:16:26;;;;;;;10.45;3.85;;;;;;;;;;6289225;22;20081;-96
2023/04/30 04:18:56;;;;;;;7.22;3.85;;;;;;;;;;6288861;22;20421;-96
2023/04/30 04:21:32;;;;;;;15.73;3.80;;;;;;;;;;6229764;23;20015;-96
2023/04/30 04:24:25;;;;;;;14.75;3.80;;;;;;;;;;6228719;23;20059;-95
2023/04/30 04:26:52;;;;;;;11.90;3.72;;;;;;;;;;6230739;23;20000;-96
2023/04/30 04:29:39;;;;;;;12.30;4.30;;;;;;;;;;6230988;23;20031;-95
2023/04/30 04:32:17;;;;;;;15.18;4.70;;;;;;;;;;6225683;23;20008;-95
2023/04/30 04:34:44;;;;;;;11.43;4.35;;;;;;;;;;6230648;23;20288;-96
2023/04/30 04:37:23;;;;;;;10.73;3.65;;;;;;;;;;6229418;23;20476;-96
2023/04/30 04:39:50;;;;;;;11.15;4.53;;;;;;;;;;6229154;23;20008;-96
2023/04/30 04:42:30;;;;;;;8.35;3.47;;;;;;;;;;6229490;23;20055;-96
2023/04/30 04:45:19;;;;;;;9.10;4.03;;;;;;;;;;6205341;23;20008;-96
2023/04/30 04:50:47;;;;;;;9.90;4.85;;;;;;;;;;6233771;23;20022;-96
2023/04/30 04:53:28;;;;;;;11.27;4.13;;;;;;;;;;6257911;22;20493;-96
2023/04/30 04:56:09;;;;;;;11.63;4.78;;;;;;;;;;6287393;22;20063;-96
2023/04/30 04:58:49;;;;;;;13.68;5.50;;;;;;;;;;6285407;22;20020;-95
2023/04/30 05:01:36;;;;;;;15.82;5.28;;;;;;;;;;6287782;22;20008;-96
2023/04/30 05:04:08;;;;;;;16.33;4.82;;;;;;;;;;6288738;22;20091;-96
2023/04/30 05:06:41;;;;;;;13.10;5.07;;;;;;;;;;6263175;22;20430;-96
2023/04/30 05:09:17;;;;;;;10.00;4.72;;;;;;;;;;6263648;22;20012;-96
2023/04/30 05:12:05;;;;;;;11.32;5.03;;;;;;;;;;6286403;22;20008;-96
2023/04/30 05:14:41;;;;;;;12.27;4.40;;;;;;;;;;6288678;22;20039;-96
2023/04/30 05:17:24;;;;;;;13.55;4.30;;;;;;;;;;6261719;22;20086;-96
2023/04/30 05:19:54;;;;;;;16.80;5.05;;;;;;;;;;6264017;22;20018;-96
2023/04/30 05:22:24;;;;;;;13.68;5.15;;;;;;;;;;6255643;22;20377;-96
2023/04/30 05:25:19;;;;;;;9.93;4.50;;;;;;;;;;6289186;22;20496;-96
2023/04/30 05:28:08;;;;;;;;;;;;;;;;;;;;;
2023/04/30 05:30:44;;;;;;;16.85;4.55;;;;;;;;;;6290843;22;20455;-96
2023/04/30 05:33:31;;;;;;;17.55;4.93;;;;;;;;;;6287359;22;20011;-96
2023/04/30 05:36:11;;;;;;;19.40;5.95;;;;;;;;;;6266159;22;20011;-96
2023/04/30 05:38:56;;;;;;;15.68;4.32;;;;;;;;;;6286599;22;20386;-96
2023/04/30 06:06:38;;;;;;;14.48;3.78;;;;;;;;;;6284570;22;20053;-93
2023/04/30 06:09:05;;;;;;;13.32;3.95;;;;;;;;;;6201219;23;20080;-93
2023/04/30 06:11:34;;;;;;;12.10;3.63;;;;;;;;;;6226197;23;20008;-93
2023/04/30 06:14:16;;;;;;;11.57;3.85;;;;;;;;;;6227934;23;20047;-93
2023/04/30 06:16:43;;;;;;;12.65;3.50;;;;;;;;;;6199808;23;20008;-92
2023/04/30 06:19:14;;;;;;;9.18;3.60;;;;;;;;;;6198537;23;20042;-92
2023/04/30 06:21:43;;;;;;;13.70;3.00;;;;;;;;;;6201867;23;20067;-92
2023/04/30 06:24:12;;;;;;;8.70;3.88;;;;;;;;;;6224743;23;20007;-92
2023/04/30 06:26:39;;;;;;;10.05;3.58;;;;;;;;;;6224128;23;20660;-93
2023/04/30 06:29:16;;;;;;;18.73;4.20;;;;;;;;;;6200491;23;20016;-93
2023/04/30 06:31:42;;;;;;;7.57;3.30;;;;;;;;;;6162313;23;20016;-93
2023/04/30 06:34:08;;;;;;;13.77;3.17;;;;;;;;;;6139366;23;20512;-93
2023/04/30 06:36:35;;;;;;;15.13;3.00;;;;;;;;;;6137793;23;20017;-93
2023/04/30 06:39:04;;;;;;;12.10;3.72;;;;;;;;;;6138797;23;20016;-92
2023/04/30 06:41:31;;;;;;;9.30;2.60;;;;;;;;;;6164085;23;20005;-92
2023/04/30 06:44:03;;;;;;;13.65;3.38;;;;;;;;;;6137077;23;20494;-92
2023/04/30 06:46:29;;;;;;;11.38;3.58;;;;;;;;;;6137241;23;20021;-93
2023/04/30 06:48:57;;;;;;;28.88;4.15;;;;;;;;;;6138052;23;20009;-93
2023/04/30 06:51:23;;;;;;;8.18;2.42;;;;;;;;;;6141149;23;20451;-92
2023/04/30 06:53:51;;;;;;;13.40;3.45;;;;;;;;;;6164478;23;20016;-94
2023/04/30 06:56:20;;;;;;;10.65;2.60;;;;;;;;;;6140163;23;20013;-92
2023/04/30 06:58:56;;;;;;;11.25;2.70;;;;;;;;;;6163928;23;20009;-93
2023/04/30 07:01:22;;;;;;;23.80;5.10;;;;;;;;;;6165568;23;20060;-92
2023/04/30 07:03:49;;;;;;;13.88;3.13;;;;;;;;;;6138223;23;20005;-92
2023/04/30 07:06:17;;;;;;;15.45;3.42;;;;;;;;;;6188082;23;20005;-93
2023/04/30 07:08:52;;;;;;;11.95;2.72;;;;;;;;;;6232235;22;20478;-94
2023/04/30 07:11:23;;;;;;;20.17;3.20;;;;;;;;;;6257107;22;20088;-93
2023/04/30 07:14:00;;;;;;;10.25;3.15;;;;;;;;;;6282044;22;20014;-93
2023/04/30 07:16:26;;;;;;;6.47;2.92;;;;;;;;;;6280778;22;20011;-94
2023/04/30 07:18:53;;;;;;;15.00;3.97;;;;;;;;;;6255650;22;20011;-92
2023/04/30 07:21:24;;;;;;;16.98;3.70;;;;;;;;;;6257492;22;20007;-92
2023/04/30 07:26:36;;;;;;;10.77;2.42;;;;;;;;;;6281537;22;20069;-93
2023/04/30 07:29:10;;;;;;;7.85;2.20;;;;;;;;;;6280711;22;20034;-93
2023/04/30 07:31:36;;;;;;;7.47;2.92;;;;;;;;;;6282427;22;20034;-93
2023/04/30 07:34:02;;;;;;;12.85;2.80;;;;;;;;;;6282313;22;20642;-93
2023/04/30 07:36:43;;;;;;;;;;;;;;;;;;;;;
2023/04/30 07:39:13;;;;;;;13.93;2.53;;;;;;;;;;6282651;22;20052;-94
2023/04/30 07:41:39;;;;;;;10.27;3.30;;;;;;;;;;6256816;22;20019;-94
2023/04/30 07:44:05;;;;;;;8.60;2.42;;;;;;;;;;6257154;22;20031;-93
2023/04/30 07:46:35;;;;;;;8.60;2.28;;;;;;;;;;6256426;22;20004;-95
2023/04/30 07:49:03;;;;;;;16.25;2.47;;;;;;;;;;6257298;22;20042;-94
2023/04/30 07:54:27;;;;;;;4.95;2.10;;;;;;;;;;6241356;22;20068;-94
2023/04/30 07:57:02;;;;;;;13.15;2.35;;;;;;;;;;6282588;22;20007;-94
2023/04/30 07:59:33;;;;;;;15.98;2.45;;;;;;;;;;6284715;22;20003;-94
2023/04/30 08:02:02;;;;;;;11.77;2.38;;;;;;;;;;6257273;22;20215;-94
2023/04/30 08:04:31;;;;;;;12.27;2.40;;;;;;;;;;6285264;22;20388;-94
2023/04/30 08:07:10;;;;;;;7.50;3.65;;;;;;;;;;6285109;22;20451;-92
2023/04/30 08:09:40;;;;;;;13.23;2.40;;;;;;;;;;6285616;22;20007;-94
2023/04/30 08:15:09;;;;;;;8.43;2.05;;;;;;;;;;6285684;22;20022;-93
2023/04/30 08:17:35;;;;;;;8.95;2.33;;;;;;;;;;6283667;22;20015;-94
2023/04/30 08:20:16;;;;;;;12.25;2.60;;;;;;;;;;6283493;22;20050;-94
2023/04/30 08:25:58;;;;;;;4.72;2.63;;;;;;;;;;6268906;22;20034;-95
2023/04/30 08:28:32;;;;;;;7.00;2.47;;;;;;;;;;6282202;22;20027;-94
2023/04/30 08:31:01;;;;;;;13.77;2.28;;;;;;;;;;6258749;22;20007;-94
2023/04/30 08:33:27;;;;;;;10.02;2.80;;;;;;;;;;6283080;22;20000;-94
2023/04/30 08:35:56;;;;;;;7.03;2.05;;;;;;;;;;6281964;22;20012;-93
2023/04/30 08:38:36;;;;;;;9.60;2.50;;;;;;;;;;6284296;22;20082;-95
2023/04/30 08:41:20;;;;;;;13.63;2.70;;;;;;;;;;6284173;22;20496;-94
2023/04/30 08:44:09;;;;;;;8.68;2.20;;;;;;;;;;6280878;22;20026;-94
2023/04/30 08:46:37;;;;;;;11.15;2.22;;;;;;;;;;6270796;22;20004;-93
2023/04/30 08:49:06;;;;;;;6.47;2.30;;;;;;;;;;6282549;22;20008;-94
2023/04/30 08:51:36;;;;;;;11.30;2.83;;;;;;;;;;6282139;22;20015;-94
2023/04/30 08:54:19;;;;;;;9.98;2.25;;;;;;;;;;6282423;22;20030;-94
2023/04/30 08:59:38;;;;;;;12.48;3.85;;;;;;;;;;6282684;22;20113;-93
2023/04/30 09:02:08;;;;;;;7.00;2.40;;;;;;;;;;6280411;22;20004;-94
2023/04/30 09:05:09;;;;;;;10.02;2.75;;;;;;;;;;6282679;22;20011;-94
2023/04/30 09:07:51;;;;;;;12.65;3.97;;;;;;;;;;6277014;22;20014;-94
2023/04/30 09:10:22;;;;;;;11.40;2.88;;;;;;;;;;6201338;23;20008;-94
2023/04/30 09:13:19;;;;;;;10.13;2.40;;;;;;;;;;6226218;23;20434;-94
2023/04/30 09:15:48;;;;;;;;;;;;;;;;;;6226846;23;20035;-93
2023/04/30 09:18:18;;;;;;;10.55;2.65;;;;;;;;;;6224912;23;19947;-94
2023/04/30 09:21:14;;;;;;;;;;;;;;;;;;;;;
2023/04/30 09:30:03;;;;;;;8.70;2.40;;;;;;;;;;6253475;23;20353;-94
2023/04/30 09:35:44;;;;;;;15.90;4.35;;;;;;;;;;6253009;23;20026;-94
2023/04/30 09:38:32;;;;;;;15.57;3.85;;;;;;;;;;6227342;23;20004;-95
2023/04/30 09:40:59;;;;;;;8.82;1.90;;;;;;;;;;6227951;23;20004;-93
2023/04/30 09:43:26;;;;;;;10.75;2.42;;;;;;;;;;6201358;23;20019;-93
2023/04/30 09:45:52;;;;;;;9.38;2.53;;;;;;;;;;6226782;23;20006;-93
2023/04/30 09:48:24;;;;;;;7.15;2.38;;;;;;;;;;6227066;23;20008;-94
2023/04/30 09:50:56;;;;;;;16.48;3.05;;;;;;;;;;6227677;23;19988;-92
2023/04/30 09:53:52;;;;;;;8.60;2.15;;;;;;;;;;6223691;23;20035;-93
2023/04/30 09:56:42;;;;;;;13.30;2.50;;;;;;;;;;6218382;23;20049;-94
2023/04/30 09:59:25;;;;;;;5.88;1.80;;;;;;;;;;6228666;23;20060;-94
2023/04/30 10:05:10;;;;;;;6.15;2.30;;;;;;;;;;6256631;23;20019;-93
2023/04/30 10:07:38;;;;;;;10.55;2.70;;;;;;;;;;6226401;23;20059;-94
2023/04/30 10:10:32;;;;;;;16.40;2.92;;;;;;;;;;6285949;22;20020;-93
2023/04/30 10:13:23;;;;;;;7.22;2.65;;;;;;;;;;6286783;22;20117;-93
2023/04/30 10:18:47;;;;;;;10.95;2.90;;;;;;;;;;6286440;22;20460;-93
2023/04/30 10:21:17;;;;;;;10.13;2.78;;;;;;;;;;6262211;22;20107;-94
2023/04/30 10:26:28;;;;;;;18.88;2.80;;;;;;;;;;6285843;22;20045;-93
2023/04/30 10:32:31;;;;;;;12.32;2.78;;;;;;;;;;6164687;23;20020;-93
2023/04/30 10:35:05;;;;;;;4.80;2.17;;;;;;;;;;6165188;23;20017;-94
2023/04/30 10:37:51;;;;;;;5.38;2.78;;;;;;;;;;6246729;22;20004;-92
2023/04/30 10:40:24;;;;;;;7.20;2.90;;;;;;;;;;6288318;22;20061;-94
2023/04/30 10:43:06;;;;;;;10.65;2.53;;;;;;;;;;6262607;22;20019;-93
2023/04/30 10:45:55;;;;;;;6.68;2.40;;;;;;;;;;6263406;22;20038;-92
2023/04/30 10:48:28;;;;;;;16.38;3.10;;;;;;;;;;6290955;22;20004;-92
2023/04/30 10:53:57;;;;;;;7.43;2.75;;;;;;;;;;6195355;23;20056;-92
2023/04/30 10:56:23;;;;;;;;;;;;;;;;;;6172048;23;20590;-94
2023/04/30 10:58:51;;;;;;;12.18;3.17;;;;;;;;;;6240918;22;20317;-93
2023/04/30 11:01:18;;;;;;;8.43;3.15;;;;;;;;;;6289846;22;20063;-93
2023/04/30 11:04:06;;;;;;;5.97;2.60;;;;;;;;;;6265495;22;20027;-93
2023/04/30 11:06:51;;;;;;;3.08;1.92;;;;;;;;;;6291284;22;20067;-95
2023/04/30 11:09:26;;;;;;;5.45;2.67;;;;;;;;;;6291549;22;20075;-93
2023/04/30 11:12:03;;;;;;;11.60;2.80;;;;;;;;;;6288801;22;20012;-94
2023/04/30 11:14:36;;;;;;;13.20;3.45;;;;;;;;;;6287624;22;20408;-94
2023/04/30 11:17:03;;;;;;;5.68;2.42;;;;;;;;;;6262179;22;20008;-95
2023/04/30 11:19:33;;;;;;;10.32;2.17;;;;;;;;;;6284215;22;20018;-94
2023/04/30 11:22:15;;;;;;;;;;;;;;;;;;;;;
2023/04/30 11:24:57;;;;;;;9.88;3.47;;;;;;;;;;6288854;22;20022;-95
2023/04/30 11:27:25;;;;;;;8.00;2.65;;;;;;;;;;6284602;22;20034;-95
2023/04/30 11:29:51;;;;;;;9.05;2.67;;;;;;;;;;6286296;22;20003;-94
2023/04/30 11:32:20;;;;;;;4.93;2.35;;;;;;;;;;6227906;23;20008;-94
2023/04/30 11:35:06;;;;;;;4.35;2.97;;;;;;;;;;6251685;23;20008;-94
2023/04/30 11:42:45;;;;;;;6.75;2.75;;;;;;;;;;6234275;22;20032;-86
2023/04/30 11:45:33;;;;;;;8.75;2.47;;;;;;;;;;6197511;23;20024;-91
2023/04/30 11:48:00;;;;;;;7.70;2.38;;;;;;;;;;6223486;23;20032;-89
2023/04/30 11:50:30;;;;;;;5.82;2.20;;;;;;;;;;6224856;23;20013;-88
2023/04/30 11:52:57;;;;;;;6.28;2.65;;;;;;;;;;6221394;23;20011;-88
2023/04/30 11:55:29;;;;;;;7.03;2.40;;;;;;;;;;6221257;23;20000;-89
2023/04/30 11:57:58;;;;;;;6.55;2.60;;;;;;;;;;6224627;23;20004;-90
2023/04/30 12:00:34;;;;;;;6.78;2.47;;;;;;;;;;6220906;23;20458;-89
2023/04/30 12:03:02;;;;;;;6.97;2.65;;;;;;;;;;6195317;23;20013;-89
2023/04/30 12:05:28;;;;;;;7.80;2.67;;;;;;;;;;6221729;23;20000;-91
2023/04/30 12:08:00;;;;;;;5.65;2.30;;;;;;;;;;6220107;23;20079;-88
2023/04/30 12:10:31;;;;;;;3.95;1.85;;;;;;;;;;6220456;23;20157;-92
2023/04/30 12:12:58;;;;;;;3.72;1.80;;;;;;;;;;6221414;23;20074;-92
2023/04/30 12:15:38;;;;;;;2.80;1.90;;;;;;;;;;6227321;23;20005;-91
2023/04/30 12:18:27;;;;;;;4.95;2.10;;;;;;;;;;6200563;23;20025;-92
2023/04/30 12:20:53;;;;;;;5.75;2.25;;;;;;;;;;6226251;23;20392;-93
2023/04/30 12:23:30;;;;;;;4.22;2.10;;;;;;;;;;6224070;23;20049;-87
2023/04/30 12:25:59;;;;;;;3.10;2.42;;;;;;;;;;6201062;23;20004;-90
2023/04/30 12:28:31;;;;;;;6.00;2.38;;;;;;;;;;6225092;23;20411;-93
2023/04/30 12:30:57;;;;;;;8.52;4.43;;;;;;;;;;6224487;23;20009;-92
2023/04/30 12:33:23;;;;;;;6.13;2.55;;;;;;;;;;6199961;23;20028;-90
2023/04/30 12:36:10;;;;;;;5.78;2.38;;;;;;;;;;6223931;23;20074;-93
2023/04/30 12:38:42;;;;;;;4.13;2.20;;;;;;;;;;6222410;23;20075;-91
2023/04/30 12:41:16;;;;;;;3.88;2.08;;;;;;;;;;6222064;23;20012;-91
2023/04/30 12:43:43;;;;;;;4.55;2.47;;;;;;;;;;6221795;22;20116;-92
2023/04/30 12:46:09;;;;;;;6.03;2.75;;;;;;;;;;6219251;23;20040;-94
2023/04/30 12:48:46;;;;;;;4.28;1.95;;;;;;;;;;6196978;23;20026;-93
2023/04/30 12:51:12;;;;;;;4.93;2.35;;;;;;;;;;6222944;23;20011;-92
2023/04/30 12:53:46;;;;;;;5.07;2.60;;;;;;;;;;6193871;23;20016;-95
2023/04/30 12:56:14;;;;;;;3.70;2.40;;;;;;;;;;6196961;23;20012;-91
2023/04/30 12:58:49;;;;;;;7.40;2.72;;;;;;;;;;6223497;23;20027;-93
2023/04/30 13:01:20;;;;;;;3.00;2.22;;;;;;;;;;6227753;23;20020;-89
2023/04/30 13:03:52;;;;;;;6.38;2.60;;;;;;;;;;6226358;23;20016;-90
2023/04/30 13:06:24;;;;;;;6.57;2.20;;;;;;;;;;6197346;23;20021;-91
2023/04/30 13:08:51;;;;;;;5.03;2.80;;;;;;;;;;6229802;23;20011;-96
2023/04/30 13:11:31;;;;;;;8.07;2.63;;;;;;;;;;6207279;23;20015;-96
2023/04/30 13:14:11;;;;;;;7.90;2.40;;;;;;;;;;6232280;23;20008;-96
2023/04/30 13:16:56;;;;;;;4.88;2.80;;;;;;;;;;6210520;23;19996;-95
2023/04/30 13:19:34;;;;;;;8.33;3.17;;;;;;;;;;6227720;23;20112;-93
2023/04/30 13:22:05;;;;;;;5.20;2.25;;;;;;;;;;6218467;23;20004;-91
2023/04/30 13:24:32;;;;;;;11.98;2.80;;;;;;;;;;6227352;23;20139;-91
2023/04/30 13:26:58;;;;;;;7.15;2.42;;;;;;;;;;6174842;23;20043;-94
2023/04/30 13:29:24;;;;;;;3.85;2.75;;;;;;;;;;6226021;23;20028;-91
2023/04/30 13:31:52;;;;;;;8.10;2.70;;;;;;;;;;6194814;23;20008;-92
2023/04/30 13:34:34;;;;;;;4.97;2.28;;;;;;;;;;6223175;23;20108;-91
2023/04/30 13:37:05;;;;;;;5.85;2.10;;;;;;;;;;6224054;23;20015;-89
2023/04/30 13:39:31;;;;;;;3.65;2.10;;;;;;;;;;6196349;23;20080;-90
2023/04/30 13:42:06;;;;;;;2.92;2.17;;;;;;;;;;6195647;23;20068;-91
2023/04/30 13:44:39;;;;;;;5.78;2.00;;;;;;;;;;6232155;22;20026;-87
2023/04/30 13:47:14;;;;;;;3.47;2.15;;;;;;;;;;6218625;23;20443;-89
2023/04/30 13:49:42;;;;;;;8.38;2.03;;;;;;;;;;6221277;23;20016;-89
2023/04/30 13:52:11;;;;;;;3.97;2.10;;;;;;;;;;6195828;23;20342;-92
2023/04/30 13:54:40;;;;;;;2.47;1.60;;;;;;;;;;6196086;23;20039;-90
2023/04/30 13:57:15;;;;;;;2.58;1.52;;;;;;;;;;6220150;23;20035;-89
2023/04/30 13:59:44;;;;;;;4.07;2.17;;;;;;;;;;6200525;23;20071;-92
2023/04/30 14:02:14;;;;;;;7.88;2.03;;;;;;;;;;6198694;23;20005;-91
2023/04/30 14:04:40;;;;;;;3.65;1.92;;;;;;;;;;6200772;23;20056;-93
2023/04/30 14:07:06;;;;;;;4.22;2.05;;;;;;;;;;6222259;23;20014;-90
2023/04/30 14:09:35;;;;;;;4.75;1.80;;;;;;;;;;6168979;23;20137;-86
2023/04/30 14:12:05;;;;;;;5.95;1.88;;;;;;;;;;6215348;23;20012;-86
2023/04/30 14:14:31;;;;;;;4.70;2.00;;;;;;;;;;6217437;23;20013;-86
2023/04/30 14:16:57;;;;;;;5.43;1.70;;;;;;;;;;6192095;23;20027;-91
2023/04/30 14:19:26;;;;;;;3.00;1.73;;;;;;;;;;6220725;23;20009;-89
2023/04/30 14:21:54;;;;;;;5.85;1.65;;;;;;;;;;6217869;23;20004;-89
2023/04/30 14:24:59;;;;;;;;;;;;;;;;;;;;;
2023/04/30 14:31:01;;;;;;;2.67;1.67;;;;;;;;;;6236859;23;20329;-96
2023/04/30 14:33:50;;;;;;;2.42;1.40;;;;;;;;;;6114862;23;20014;-96
2023/04/30 14:36:44;;;;;;;5.80;2.33;;;;;;;;;;6130346;23;20028;-96
2023/04/30 14:49:31;;;;;;;5.18;1.90;;;;;;;;;;6063355;23;20031;-95
2023/04/30 14:52:16;;;;;;;4.55;1.70;;;;;;;;;;6112540;23;20033;-96
2023/04/30 14:57:49;;;;;;;5.07;1.65;;;;;;;;;;6076048;23;20052;-94
2023/04/30 15:00:18;;;;;;;2.70;1.30;;;;;;;;;;6057642;23;20029;-94
2023/04/30 15:02:44;;;;;;;4.57;1.65;;;;;;;;;;6129298;23;20012;-95
2023/04/30 15:05:12;;;;;;;6.30;1.70;;;;;;;;;;6227947;23;20009;-95
2023/04/30 15:08:27;;;;;;;6.93;1.90;;;;;;;;;;6227678;23;20012;-95
2023/04/30 15:10:59;;;;;;;3.88;1.30;;;;;;;;;;6252089;23;20008;-95
2023/04/30 15:13:37;;;;;;;7.88;2.55;;;;;;;;;;6226480;23;20012;-94
2023/04/30 15:16:13;;;;;;;6.28;1.67;;;;;;;;;;6255526;23;20019;-94
2023/04/30 15:18:42;;;;;;;;;;;;;;;;;;6228694;23;20004;-94
2023/04/30 15:21:19;;;;;;;;;;;;;;;;;;;;;
2023/04/30 15:23:49;;;;;;;4.10;1.30;;;;;;;;;;6254465;23;20023;-93
2023/04/30 15:26:19;;;;;;;5.93;1.40;;;;;;;;;;6228163;23;20355;-94
2023/04/30 15:28:48;;;;;;;4.47;1.40;;;;;;;;;;6226137;23;20009;-93
2023/04/30 15:31:23;;;;;;;3.95;1.60;;;;;;;;;;6200525;23;20023;-93
2023/04/30 15:43:18;;;;;;;;;;;;;;;;;;;;;
2023/04/30 15:46:00;;;;;;;2.50;1.40;;;;;;;;;;6270694;22;20755;-95
2023/04/30 15:48:37;;;;;;;1.88;1.40;;;;;;;;;;6256036;22;20007;-95
2023/04/30 15:51:03;;;;;;;8.75;1.40;;;;;;;;;;6257049;22;20322;-95
2023/04/30 15:53:30;;;;;;;4.15;1.58;;;;;;;;;;6257864;22;20085;-95
2023/04/30 15:55:56;;;;;;;2.33;1.38;;;;;;;;;;6257875;22;20015;-96
2023/04/30 15:58:25;;;;;;;6.28;1.73;;;;;;;;;;6254587;22;20095;-94
2023/04/30 16:01:00;;;;;;;4.68;1.83;;;;;;;;;;6255365;22;20007;-95
2023/04/30 16:03:27;;;;;;;5.95;1.60;;;;;;;;;;6278320;22;20015;-95
2023/04/30 16:05:53;;;;;;;5.70;2.38;;;;;;;;;;6282456;22;20027;-95
2023/04/30 16:08:21;;;;;;;3.45;1.88;;;;;;;;;;6274392;22;20004;-95
2023/04/30 16:10:47;;;;;;;2.72;1.50;;;;;;;;;;6277385;22;20499;-95
2023/04/30 16:13:13;;;;;;;4.95;1.83;;;;;;;;;;6250809;22;20469;-95
2023/04/30 16:15:42;;;;;;;2.45;1.30;;;;;;;;;;6252995;22;20007;-95
2023/04/30 16:18:08;;;;;;;3.92;1.70;;;;;;;;;;6256875;22;20011;-95
2023/04/30 16:20:36;;;;;;;4.60;1.83;;;;;;;;;;6257371;22;20231;-94
2023/04/30 16:23:03;;;;;;;3.88;1.77;;;;;;;;;;6281634;22;20011;-96
2023/04/30 16:25:33;;;;;;;3.45;1.70;;;;;;;;;;6281889;22;20011;-95
2023/04/30 16:28:06;;;;;;;7.03;1.90;;;;;;;;;;6282704;22;20042;-95
2023/04/30 16:30:32;;;;;;;6.47;1.77;;;;;;;;;;6256545;22;20091;-95
2023/04/30 16:33:01;;;;;;;3.63;1.27;;;;;;;;;;6281347;22;20004;-95
2023/04/30 16:35:30;;;;;;;7.65;2.13;;;;;;;;;;6258042;22;20004;-95
2023/04/30 16:37:57;;;;;;;7.60;2.50;;;;;;;;;;6281920;22;20103;-95
2023/04/30 16:40:23;;;;;;;8.02;2.83;;;;;;;;;;6258855;22;20015;-94
2023/04/30 16:42:49;;;;;;;6.72;2.65;;;;;;;;;;6258941;22;20000;-94
2023/04/30 16:45:23;;;;;;;7.90;2.63;;;;;;;;;;6256333;22;20350;-95
2023/04/30 16:47:50;;;;;;;9.98;3.05;;;;;;;;;;6283724;22;20328;-95
2023/04/30 16:50:26;;;;;;;7.40;2.85;;;;;;;;;;6284077;22;20008;-95
2023/04/30 16:52:53;;;;;;;4.93;2.17;;;;;;;;;;6282844;22;20014;-94
2023/04/30 16:55:32;;;;;;;6.90;2.22;;;;;;;;;;6279371;22;20011;-94
2023/04/30 16:58:06;;;;;;;5.22;2.75;;;;;;;;;;6283301;22;20012;-95
2023/04/30 17:00:34;;;;;;;9.60;2.80;;;;;;;;;;6255170;22;20063;-94
2023/04/30 17:03:00;;;;;;;5.47;2.38;;;;;;;;;;6258534;22;20012;-96
2023/04/30 17:05:27;;;;;;;13.27;2.40;;;;;;;;;;6261373;22;20004;-94
2023/04/30 17:07:53;;;;;;;6.10;2.70;;;;;;;;;;6282934;22;20034;-94
2023/04/30 17:10:22;;;;;;;13.85;3.15;;;;;;;;;;6284232;22;20230;-93
2023/04/30 17:12:51;;;;;;;9.18;2.88;;;;;;;;;;6258704;22;20018;-93
2023/04/30 17:15:19;;;;;;;21.17;6.00;;;;;;;;;;6249460;22;20027;-94
2023/04/30 17:17:45;;;;;;;8.20;3.40;;;;;;;;;;6249780;22;20391;-94
2023/04/30 17:20:14;;;;;;;12.10;3.42;;;;;;;;;;6279647;22;20513;-95
2023/04/30 17:22:40;;;;;;;6.70;3.00;;;;;;;;;;6281444;22;20398;-94